createdAt,value
2022-12-24T00:01:05.610Z,89.24
2022-12-24T00:03:33.370Z,89.16
2022-12-24T00:06:04.977Z,89.15
2022-12-24T00:08:31.742Z,89.26
2022-12-24T00:10:58.710Z,89.41
2022-12-24T00:13:25.495Z,89.41
2022-12-24T00:15:52.290Z,89.65
2022-12-24T00:18:19.527Z,89.59
2022-12-24T00:20:47.849Z,89.51
2022-12-24T00:23:15.250Z,89.57
2022-12-24T00:25:42.180Z,89.92
2022-12-24T00:28:09.001Z,89.99
2022-12-24T00:30:38.273Z,89.80
2022-12-24T00:33:05.639Z,89.97
2022-12-24T00:35:36.465Z,90.34
2022-12-24T00:38:04.015Z,90.23
2022-12-24T00:40:31.504Z,90.05
2022-12-24T00:42:59.011Z,90.21
2022-12-24T00:45:27.999Z,90.33
2022-12-24T00:47:56.410Z,90.50
2022-12-24T00:50:23.229Z,90.53
2022-12-24T00:52:50.007Z,90.45
2022-12-24T00:55:17.949Z,90.53
2022-12-24T00:57:44.736Z,90.47
2022-12-24T01:00:11.837Z,90.56
2022-12-24T01:02:41.272Z,90.54
2022-12-24T01:05:11.208Z,90.44
2022-12-24T01:07:40.147Z,90.54
2022-12-24T01:10:07.730Z,90.25
2022-12-24T01:12:35.196Z,90.48
2022-12-24T01:15:02.023Z,90.24
2022-12-24T01:17:28.932Z,90.67
2022-12-24T01:19:55.819Z,90.45
2022-12-24T01:22:22.564Z,90.73
2022-12-24T01:24:49.436Z,90.73
2022-12-24T01:27:16.210Z,90.85
2022-12-24T01:29:42.984Z,90.60
2022-12-24T01:32:09.769Z,90.73
2022-12-24T01:34:36.804Z,90.74
2022-12-24T01:37:03.575Z,90.61
2022-12-24T01:39:30.301Z,90.60
2022-12-24T01:42:15.818Z,90.76
2022-12-24T01:44:44.515Z,90.74
2022-12-24T01:47:17.991Z,90.92
2022-12-24T01:49:57.769Z,90.83
2022-12-24T01:52:28.271Z,90.79
2022-12-24T01:55:01.291Z,91.00
2022-12-24T01:57:31.237Z,90.91
2022-12-24T02:00:01.348Z,91.04
2022-12-24T02:02:33.734Z,91.07
2022-12-24T02:05:14.833Z,91.03
2022-12-24T02:07:41.643Z,91.13
2022-12-24T02:10:11.482Z,91.39
2022-12-24T02:12:39.002Z,91.26
2022-12-24T02:15:07.674Z,91.28
2022-12-24T02:17:50.748Z,91.35
2022-12-24T02:20:43.703Z,91.18
2022-12-24T02:23:38.727Z,91.44
2022-12-24T02:26:28.302Z,91.25
2022-12-24T02:28:58.112Z,91.54
2022-12-24T02:31:30.880Z,91.18
2022-12-24T02:34:03.878Z,91.14
2022-12-24T02:36:35.539Z,91.55
2022-12-24T02:39:09.024Z,91.40
2022-12-24T02:41:57.458Z,91.29
2022-12-24T02:44:28.001Z,91.42
2022-12-24T02:46:55.491Z,91.48
2022-12-24T02:49:22.270Z,91.57
2022-12-24T02:51:49.101Z,91.48
2022-12-24T02:54:16.921Z,91.59
2022-12-24T02:56:46.666Z,91.49
2022-12-24T02:59:31.538Z,91.61
2022-12-24T03:02:20.151Z,91.51
2022-12-24T03:04:55.491Z,91.28
2022-12-24T03:07:28.883Z,91.58
2022-12-24T03:10:06.803Z,91.68
2022-12-24T03:12:42.118Z,91.69
2022-12-24T03:15:11.128Z,91.60
2022-12-24T03:17:39.565Z,91.58
2022-12-24T03:20:08.913Z,91.59
2022-12-24T03:22:36.262Z,91.43
2022-12-24T03:25:03.715Z,91.62
2022-12-24T03:27:32.638Z,91.77
2022-12-24T03:29:59.673Z,91.58
2022-12-24T03:32:32.075Z,91.36
2022-12-24T03:34:58.864Z,91.64
2022-12-24T03:37:26.876Z,91.16
2022-12-24T03:39:53.625Z,91.30
2022-12-24T03:42:20.400Z,91.91
2022-12-24T03:44:47.236Z,91.49
2022-12-24T03:47:17.254Z,91.50
2022-12-24T03:49:44.032Z,91.65
2022-12-24T03:52:10.872Z,91.48
2022-12-24T03:54:37.571Z,91.95
2022-12-24T03:57:04.402Z,91.33
2022-12-24T03:59:31.189Z,91.76
2022-12-24T04:01:58.306Z,91.43
2022-12-24T04:04:25.378Z,91.40
2022-12-24T04:06:52.494Z,91.27
2022-12-24T04:09:20.018Z,91.53
2022-12-24T04:11:47.083Z,91.52
2022-12-24T04:14:13.985Z,91.49
2022-12-24T04:16:40.733Z,91.34
2022-12-24T04:19:07.512Z,91.19
2022-12-24T04:21:34.223Z,91.06
2022-12-24T04:24:00.981Z,91.23
2022-12-24T04:26:27.774Z,91.09
2022-12-24T04:28:54.783Z,90.98
2022-12-24T04:31:21.513Z,91.07
2022-12-24T04:33:51.489Z,90.82
2022-12-24T04:36:19.465Z,90.58
2022-12-24T04:38:47.413Z,90.58
2022-12-24T04:41:23.085Z,90.87
2022-12-24T04:43:51.526Z,90.57
2022-12-24T04:46:21.124Z,90.40
2022-12-24T04:48:49.839Z,90.49
2022-12-24T04:51:17.591Z,90.29
2022-12-24T04:53:44.709Z,90.22
2022-12-24T04:56:13.473Z,89.97
2022-12-24T04:58:40.207Z,89.65
2022-12-24T05:01:09.208Z,90.00
2022-12-24T05:03:36.065Z,89.85
2022-12-24T05:06:04.830Z,89.73
2022-12-24T05:08:31.547Z,89.92
2022-12-24T05:10:59.293Z,89.79
2022-12-24T05:13:31.964Z,89.50
2022-12-24T05:16:05.151Z,89.65
2022-12-24T05:18:31.969Z,89.26
2022-12-24T05:20:59.147Z,89.51
2022-12-24T05:23:44.682Z,89.31
2022-12-24T05:26:22.645Z,89.28
2022-12-24T05:28:51.247Z,89.01
2022-12-24T05:31:18.425Z,89.28
2022-12-24T05:33:45.420Z,88.95
2022-12-24T05:36:12.270Z,88.96
2022-12-24T05:38:39.141Z,89.24
2022-12-24T05:41:06.613Z,88.79
2022-12-24T05:43:33.349Z,88.94
2022-12-24T05:46:06.120Z,88.71
2022-12-24T05:48:32.984Z,88.60
2022-12-24T05:50:59.740Z,88.85
2022-12-24T05:53:26.447Z,88.78
2022-12-24T05:55:53.270Z,88.93
2022-12-24T05:58:19.973Z,88.91
2022-12-24T06:00:54.537Z,88.54
2022-12-24T06:03:21.490Z,88.70
2022-12-24T06:05:48.426Z,88.87
2022-12-24T06:08:15.199Z,88.76
2022-12-24T06:10:42.012Z,88.73
2022-12-24T06:13:08.788Z,88.82
2022-12-24T06:15:36.221Z,88.68
2022-12-24T06:18:03.434Z,88.43
2022-12-24T06:20:30.211Z,88.65
2022-12-24T06:22:56.903Z,88.69
2022-12-24T06:25:23.745Z,88.59
2022-12-24T06:27:50.475Z,88.46
2022-12-24T06:30:18.694Z,88.50
2022-12-24T06:32:45.566Z,88.40
2022-12-24T06:35:12.423Z,88.44
2022-12-24T06:37:39.121Z,88.46
2022-12-24T06:40:06.398Z,88.50
2022-12-24T06:42:33.065Z,88.40
2022-12-24T06:45:05.567Z,88.30
2022-12-24T06:47:34.885Z,88.24
2022-12-24T06:50:01.810Z,88.44
2022-12-24T06:52:28.505Z,88.17
2022-12-24T06:54:55.435Z,88.58
2022-12-24T06:57:22.093Z,88.41
2022-12-24T06:59:48.775Z,88.54
2022-12-24T07:02:15.653Z,88.54
2022-12-24T07:04:42.968Z,88.42
2022-12-24T07:07:09.655Z,88.37
2022-12-24T07:09:36.293Z,88.25
2022-12-24T07:12:03.021Z,88.36
2022-12-24T07:14:29.630Z,88.30
2022-12-24T07:16:59.290Z,88.47
2022-12-24T07:19:26.288Z,88.25
2022-12-24T07:21:52.960Z,88.46
2022-12-24T07:24:25.170Z,88.33
2022-12-24T07:26:52.003Z,88.52
2022-12-24T07:29:18.752Z,88.25
2022-12-24T07:31:45.588Z,88.41
2022-12-24T07:34:51.026Z,88.25
2022-12-24T07:57:28.373Z,88.60
2022-12-24T08:00:20.938Z,88.58
2022-12-24T08:05:54.832Z,88.52
2022-12-24T08:15:18.510Z,88.39
2022-12-24T08:38:43.754Z,88.19
2022-12-24T08:41:31.032Z,88.41
2022-12-24T08:52:40.198Z,88.76
2022-12-24T08:56:05.918Z,88.49
2022-12-24T09:02:53.534Z,88.60
2022-12-24T09:05:23.308Z,88.49
2022-12-24T09:07:50.095Z,88.46
2022-12-24T09:10:20.040Z,88.30
2022-12-24T09:12:59.193Z,88.62
2022-12-24T09:15:28.423Z,88.53
2022-12-24T09:21:32.112Z,88.52
2022-12-24T09:28:39.031Z,88.34
2022-12-24T09:32:43.954Z,88.65
2022-12-24T09:36:29.953Z,88.65
2022-12-24T09:40:00.896Z,88.64
2022-12-24T09:44:00.275Z,88.68
2022-12-24T09:50:28.901Z,88.51
2022-12-24T09:53:56.154Z,88.52
2022-12-24T10:05:09.971Z,88.83
2022-12-24T10:07:46.938Z,88.81
2022-12-24T10:25:08.390Z,88.61
2022-12-24T10:28:03.248Z,88.71
2022-12-24T10:30:30.466Z,88.67
2022-12-24T10:32:57.447Z,88.60
2022-12-24T10:35:30.221Z,88.42
2022-12-24T10:37:58.449Z,88.71
2022-12-24T10:40:32.821Z,88.80
2022-12-24T10:42:59.631Z,88.83
2022-12-24T10:45:32.464Z,88.56
2022-12-24T10:48:03.526Z,88.64
2022-12-24T10:50:44.144Z,88.50
2022-12-24T10:53:18.877Z,88.60
2022-12-24T10:55:49.230Z,88.40
2022-12-24T10:58:19.432Z,88.50
2022-12-24T11:01:20.924Z,88.43
2022-12-24T11:04:22.860Z,88.58
2022-12-24T11:07:19.188Z,88.53
2022-12-24T11:09:58.381Z,88.52
2022-12-24T11:12:37.116Z,88.25
2022-12-24T11:15:03.831Z,88.33
2022-12-24T11:17:30.753Z,88.23
2022-12-24T11:19:58.877Z,88.39
2022-12-24T11:22:31.019Z,88.24
2022-12-24T11:25:23.959Z,88.20
2022-12-24T11:27:51.871Z,88.26
2022-12-24T11:30:30.595Z,88.18
2022-12-24T11:33:14.629Z,88.27
2022-12-24T11:35:45.741Z,88.45
2022-12-24T11:38:19.168Z,88.22
2022-12-24T11:40:49.659Z,88.19
2022-12-24T11:43:20.952Z,88.02
2022-12-24T11:45:50.321Z,88.06
2022-12-24T11:48:37.290Z,87.95
2022-12-24T11:51:06.554Z,88.22
2022-12-24T11:53:44.422Z,88.14
2022-12-24T11:56:38.753Z,88.02
2022-12-24T11:59:11.954Z,87.88
2022-12-24T12:01:51.216Z,88.01
2022-12-24T12:04:43.403Z,88.02
2022-12-24T12:08:14.402Z,87.96
2022-12-24T12:14:29.244Z,88.08
2022-12-24T12:18:04.564Z,88.23
2022-12-24T12:21:42.481Z,88.00
2022-12-24T12:25:24.019Z,87.79
2022-12-24T12:33:10.294Z,88.34
2022-12-24T12:36:26.856Z,88.50
2022-12-24T12:39:02.441Z,88.26
2022-12-24T12:57:24.553Z,88.38
2022-12-24T12:59:56.102Z,88.66
2022-12-24T13:02:41.861Z,88.94
2022-12-24T13:06:02.779Z,88.50
2022-12-24T13:09:14.611Z,88.76
2022-12-24T13:11:59.892Z,88.57
2022-12-24T13:14:45.177Z,88.57
2022-12-24T13:17:49.938Z,88.72
2022-12-24T13:20:26.235Z,88.66
2022-12-24T13:23:08.845Z,88.81
2022-12-24T13:25:44.221Z,88.64
2022-12-24T13:28:23.003Z,88.81
2022-12-24T13:30:54.141Z,89.02
2022-12-24T13:33:39.425Z,89.04
2022-12-24T13:36:10.233Z,88.73
2022-12-24T13:38:49.360Z,88.78
2022-12-24T13:41:42.196Z,89.01
2022-12-24T13:44:14.826Z,88.82
2022-12-24T13:46:56.898Z,88.90
2022-12-24T13:49:45.918Z,88.88
2022-12-24T13:52:13.041Z,89.32
2022-12-24T13:54:59.517Z,88.87
2022-12-24T13:57:41.676Z,89.01
2022-12-24T14:00:25.728Z,89.24
2022-12-24T14:03:15.519Z,89.46
2022-12-24T14:05:52.606Z,89.17
2022-12-24T14:08:27.249Z,89.10
2022-12-24T14:11:09.174Z,89.42
2022-12-24T14:13:39.052Z,89.23
2022-12-24T14:16:10.233Z,89.29
2022-12-24T14:18:41.683Z,89.53
2022-12-24T14:21:16.007Z,89.50
2022-12-24T14:23:49.330Z,89.70
2022-12-24T14:26:19.486Z,89.66
2022-12-24T14:28:53.144Z,89.43
2022-12-24T14:31:19.941Z,89.61
2022-12-24T14:33:46.945Z,89.78
2022-12-24T14:36:18.437Z,89.81
2022-12-24T14:38:45.429Z,89.60
2022-12-24T14:41:31.781Z,89.71
2022-12-24T14:44:21.492Z,89.60
2022-12-24T14:47:08.739Z,89.99
2022-12-24T14:50:00.966Z,89.81
2022-12-24T14:53:04.087Z,89.81
2022-12-24T14:55:37.012Z,90.23
2022-12-24T14:58:36.939Z,89.90
2022-12-24T15:01:18.276Z,90.18
2022-12-24T15:03:45.842Z,90.03
2022-12-24T15:06:13.939Z,90.23
2022-12-24T15:08:44.912Z,90.06
2022-12-24T15:11:16.950Z,90.39
2022-12-24T15:13:46.220Z,90.57
2022-12-24T15:16:15.800Z,90.26
2022-12-24T15:18:46.965Z,90.08
2022-12-24T15:21:21.157Z,90.39
2022-12-24T15:23:50.091Z,90.38
2022-12-24T15:26:36.771Z,90.34
2022-12-24T15:29:33.898Z,90.36
2022-12-24T15:32:02.325Z,90.73
2022-12-24T15:34:35.405Z,90.63
2022-12-24T15:37:11.049Z,90.57
2022-12-24T15:39:39.422Z,90.85
2022-12-24T15:42:13.617Z,90.96
2022-12-24T15:45:06.949Z,90.80
2022-12-24T15:47:40.055Z,91.17
2022-12-24T15:50:29.824Z,91.08
2022-12-24T15:53:19.542Z,91.12
2022-12-24T15:55:47.976Z,91.13
2022-12-24T15:58:17.707Z,91.54
2022-12-24T16:00:44.724Z,91.30
2022-12-24T16:03:20.795Z,91.34
2022-12-24T16:05:59.261Z,91.75
2022-12-24T16:08:28.766Z,91.36
2022-12-24T16:11:10.057Z,91.90
2022-12-24T16:13:40.558Z,91.75
2022-12-24T16:16:11.385Z,91.49
2022-12-24T16:18:57.379Z,91.65
2022-12-24T16:21:26.492Z,91.84
2022-12-24T16:23:55.740Z,92.04
2022-12-24T16:26:22.669Z,91.80
2022-12-24T16:28:49.858Z,92.04
2022-12-24T16:31:30.531Z,92.06
2022-12-24T16:33:59.127Z,91.95
2022-12-24T16:36:26.429Z,92.17
2022-12-24T16:39:11.842Z,91.88
2022-12-24T16:41:57.443Z,91.95
2022-12-24T16:44:24.219Z,91.96
2022-12-24T16:46:52.950Z,92.20
2022-12-24T16:49:20.894Z,92.08
2022-12-24T16:51:47.804Z,92.31
2022-12-24T16:54:15.265Z,92.33
2022-12-24T16:56:42.679Z,92.32
2022-12-24T16:59:15.721Z,92.03
2022-12-24T17:01:42.508Z,92.43
2022-12-24T17:04:09.365Z,92.40
2022-12-24T17:06:36.590Z,92.33
2022-12-24T17:09:03.966Z,92.17
2022-12-24T17:11:30.770Z,92.42
2022-12-24T17:13:57.720Z,92.61
2022-12-24T17:16:24.626Z,92.11
2022-12-24T17:18:52.247Z,92.35
2022-12-24T17:21:19.961Z,92.48
2022-12-24T17:23:46.818Z,92.37
2022-12-24T17:26:15.449Z,92.27
2022-12-24T17:28:42.882Z,92.28
2022-12-24T17:31:15.266Z,92.18
2022-12-24T17:33:42.761Z,92.16
2022-12-24T17:36:09.689Z,92.41
2022-12-24T17:38:37.482Z,92.35
2022-12-24T17:41:10.407Z,92.19
2022-12-24T17:43:37.841Z,92.14
2022-12-24T17:46:06.398Z,92.13
2022-12-24T17:48:33.500Z,92.28
2022-12-24T17:51:08.477Z,92.44
2022-12-24T17:53:36.642Z,92.35
2022-12-24T17:56:03.842Z,92.21
2022-12-24T17:58:30.559Z,92.33
2022-12-24T18:00:57.536Z,92.19
2022-12-24T18:03:24.308Z,92.33
2022-12-24T18:05:52.152Z,92.30
2022-12-24T18:08:19.619Z,92.70
2022-12-24T18:10:46.865Z,92.37
2022-12-24T18:13:19.111Z,92.39
2022-12-24T18:15:46.313Z,92.44
2022-12-24T18:18:13.227Z,92.55
2022-12-24T18:20:46.308Z,92.28
2022-12-24T18:23:13.821Z,92.54
2022-12-24T18:25:40.598Z,92.46
2022-12-24T18:28:07.395Z,92.42
2022-12-24T18:30:34.122Z,92.53
2022-12-24T18:33:01.177Z,92.49
2022-12-24T18:35:28.342Z,92.43
2022-12-24T18:37:55.117Z,92.31
2022-12-24T18:40:21.916Z,92.84
2022-12-24T18:42:48.704Z,92.64
2022-12-24T18:45:15.642Z,92.64
2022-12-24T18:47:42.320Z,93.05
2022-12-24T18:50:12.312Z,92.92
2022-12-24T18:52:39.043Z,92.68
2022-12-24T18:55:06.067Z,92.55
2022-12-24T18:57:32.858Z,92.66
2022-12-24T18:59:59.741Z,92.94
2022-12-24T19:02:26.553Z,92.80
2022-12-24T19:04:53.393Z,92.82
2022-12-24T19:07:20.176Z,92.82
2022-12-24T19:09:48.502Z,92.67
2022-12-24T19:12:15.874Z,92.87
2022-12-24T19:14:43.942Z,92.94
2022-12-24T19:17:13.276Z,92.77
2022-12-24T19:19:40.287Z,92.90
2022-12-24T19:22:50.597Z,92.92
2022-12-24T19:25:24.969Z,93.11
2022-12-24T19:27:59.612Z,92.87
2022-12-24T19:30:52.593Z,93.02
2022-12-24T19:33:22.760Z,92.91
2022-12-24T19:35:58.367Z,93.11
2022-12-24T19:38:27.651Z,92.91
2022-12-24T19:40:54.365Z,93.00
2022-12-24T19:43:21.126Z,93.20
2022-12-24T19:52:58.449Z,92.98
2022-12-24T19:55:29.343Z,93.20
2022-12-24T19:58:11.557Z,93.05
2022-12-24T20:01:00.132Z,93.01
2022-12-24T20:06:48.266Z,93.37
2022-12-24T20:16:11.479Z,93.11
2022-12-24T20:19:18.743Z,93.36
2022-12-24T20:22:25.911Z,93.34
2022-12-24T20:33:26.825Z,93.00
2022-12-24T20:35:53.683Z,93.23
2022-12-24T20:42:41.973Z,93.35
2022-12-24T20:44:38.278Z,93.38
2022-12-24T20:47:08.890Z,93.49
2022-12-24T20:50:00.989Z,93.57
2022-12-24T20:53:05.625Z,93.41
2022-12-24T20:55:38.568Z,93.02
2022-12-24T20:58:05.419Z,93.37
2022-12-24T21:00:32.253Z,93.14
2022-12-24T21:03:01.259Z,93.39
2022-12-24T21:05:28.138Z,93.39
2022-12-24T21:07:54.976Z,93.32
2022-12-24T21:10:21.910Z,93.35
2022-12-24T21:12:48.745Z,93.36
2022-12-24T21:15:21.431Z,93.24
2022-12-24T21:17:48.701Z,93.41
2022-12-24T21:20:18.735Z,93.64
2022-12-24T21:23:11.089Z,93.15
2022-12-24T21:30:39.627Z,93.61
2022-12-24T21:37:00.895Z,93.36
2022-12-24T21:39:50.327Z,93.58
2022-12-24T21:45:53.958Z,93.52
2022-12-24T21:48:54.553Z,93.57
2022-12-24T21:51:32.391Z,93.68
2022-12-24T21:54:44.344Z,93.37
2022-12-24T22:00:56.521Z,93.34
2022-12-24T22:03:41.634Z,93.48
2022-12-24T22:06:49.924Z,93.47
2022-12-24T22:09:41.281Z,93.20
2022-12-24T22:12:08.767Z,93.72
2022-12-24T22:14:44.424Z,93.45
2022-12-24T22:17:29.078Z,93.38
2022-12-24T22:20:36.253Z,93.56
2022-12-24T22:23:27.973Z,93.54
2022-12-24T22:26:34.422Z,93.55
2022-12-24T22:29:18.642Z,93.42
2022-12-24T22:31:56.281Z,93.32
2022-12-24T22:34:44.696Z,93.30
2022-12-24T22:37:18.647Z,93.22
2022-12-24T22:39:46.839Z,93.10
2022-12-24T22:42:17.275Z,93.34
2022-12-24T22:44:46.840Z,93.31
2022-12-24T22:47:23.297Z,93.03
2022-12-24T22:50:06.492Z,93.33
2022-12-24T22:53:00.348Z,93.10
2022-12-24T22:55:48.793Z,93.16
2022-12-24T22:58:37.405Z,93.44
2022-12-24T23:01:13.423Z,93.18
2022-12-24T23:03:42.713Z,93.28
2022-12-24T23:06:28.283Z,93.29
2022-12-24T23:09:21.314Z,93.20
2022-12-24T23:11:49.272Z,92.99
2022-12-24T23:14:40.380Z,93.15
2022-12-24T23:17:08.748Z,93.11
2022-12-24T23:19:38.003Z,93.00
2022-12-24T23:22:11.985Z,92.89
2022-12-24T23:24:39.540Z,93.28
2022-12-24T23:27:17.084Z,93.26
2022-12-24T23:29:44.691Z,93.16
2022-12-24T23:32:11.808Z,93.28
2022-12-24T23:34:38.675Z,93.32
2022-12-24T23:37:05.622Z,93.14
2022-12-24T23:39:32.490Z,93.25
2022-12-24T23:41:59.282Z,93.16
2022-12-24T23:44:32.039Z,93.34
2022-12-24T23:47:00.079Z,93.34
2022-12-24T23:49:27.391Z,93.06
2022-12-24T23:51:54.380Z,93.22
2022-12-24T23:54:21.361Z,92.90
2022-12-24T23:56:48.637Z,93.10
2022-12-24T23:59:17.765Z,93.17
